Time;durP1;ratioP1;P1;durP2;ratioP2;P2;SDS_P1;SDS_P2;PMS_P1;PMS_P2;Temp;Humidity;BMP_temperature;BMP_pressure;BME280_temperature;BME280_humidity;BME280_pressure;Samples;Min_cycle;Max_cycle;Signal;HPM_P1;HPM_P2
2023/08/18 00:02:22;;;;;;;10.57;5.05;;;21.80;99.90;;;;;;5031855;28;20044;-54
2023/08/18 00:04:47;;;;;;;6.32;4.60;;;21.70;99.90;;;;;;5033062;28;20021;-55
2023/08/18 00:07:13;;;;;;;6.65;4.40;;;21.70;99.90;;;;;;5034229;28;20021;-54
2023/08/18 00:09:39;;;;;;;8.02;4.55;;;21.70;99.90;;;;;;5034251;28;20656;-53
2023/08/18 00:12:05;;;;;;;4.90;4.40;;;21.70;99.90;;;;;;5016593;28;20079;-53
2023/08/18 00:14:31;;;;;;;6.72;4.85;;;21.60;99.90;;;;;;5016460;28;20030;-52
2023/08/18 00:16:57;;;;;;;6.97;4.60;;;21.60;99.90;;;;;;5034208;28;20030;-54
2023/08/18 00:19:22;;;;;;;9.68;4.80;;;21.60;99.90;;;;;;5033834;28;20034;-52
2023/08/18 00:21:48;;;;;;;5.85;4.82;;;21.60;99.90;;;;;;5034259;28;20092;-57
2023/08/18 00:24:13;;;;;;;11.30;5.47;;;21.60;99.90;;;;;;5016300;28;20112;-54
2023/08/18 00:26:39;;;;;;;4.95;4.55;;;21.60;99.90;;;;;;5034747;28;20030;-53
2023/08/18 00:29:04;;;;;;;8.77;4.72;;;21.50;99.90;;;;;;5033802;28;20022;-56
2023/08/18 00:31:30;;;;;;;5.00;4.50;;;21.50;99.90;;;;;;5033912;28;20033;-56
2023/08/18 00:33:56;;;;;;;5.72;4.95;;;21.50;99.90;;;;;;5034170;28;20025;-53
2023/08/18 00:36:21;;;;;;;10.80;5.40;;;21.50;99.90;;;;;;5034127;28;20091;-57
2023/08/18 00:38:47;;;;;;;7.70;5.53;;;21.60;99.90;;;;;;5033852;28;20061;-55
2023/08/18 00:41:13;;;;;;;7.38;5.68;;;21.50;99.90;;;;;;5033711;28;20028;-55
2023/08/18 00:43:39;;;;;;;5.82;4.90;;;21.50;99.90;;;;;;5014669;28;20025;-57
2023/08/18 00:46:05;;;;;;;9.35;5.82;;;21.40;99.90;;;;;;5033802;28;20043;-57
2023/08/18 00:48:30;;;;;;;5.72;5.10;;;21.40;99.90;;;;;;5033971;28;20030;-53
2023/08/18 00:50:58;;;;;;;6.55;5.30;;;21.40;99.90;;;;;;5033599;28;20545;-54
2023/08/18 00:53:24;;;;;;;12.30;5.43;;;21.40;99.90;;;;;;5049124;28;20032;-54
2023/08/18 00:55:51;;;;;;;9.65;5.20;;;21.30;99.90;;;;;;5034096;28;20023;-52
2023/08/18 00:58:17;;;;;;;8.30;5.35;;;21.30;99.90;;;;;;5033425;28;20041;-57
2023/08/18 01:00:44;;;;;;;6.35;5.55;;;21.30;99.90;;;;;;5033062;28;20484;-53
2023/08/18 01:03:10;;;;;;;7.35;5.93;;;21.30;99.90;;;;;;5034300;28;20522;-61
2023/08/18 01:05:36;;;;;;;6.88;5.25;;;21.30;99.90;;;;;;5033290;28;20037;-62
2023/08/18 01:08:02;;;;;;;10.52;5.85;;;21.30;99.90;;;;;;5033526;28;20029;-62
2023/08/18 01:10:30;;;;;;;6.05;5.35;;;21.20;99.90;;;;;;5033066;28;20101;-62
2023/08/18 01:13:10;;;;;;;11.27;6.70;;;21.20;99.90;;;;;;5033284;28;20033;-61
2023/08/18 01:15:40;;;;;;;6.13;5.63;;;21.20;99.90;;;;;;5033379;28;20288;-61
2023/08/18 01:18:06;;;;;;;6.82;5.90;;;21.20;99.90;;;;;;5033378;28;20060;-62
2023/08/18 01:20:32;;;;;;;8.35;5.20;;;21.20;99.90;;;;;;5032938;28;20032;-62
2023/08/18 01:22:59;;;;;;;6.22;5.65;;;21.20;99.90;;;;;;5033091;28;20492;-61
2023/08/18 01:25:26;;;;;;;7.28;6.13;;;21.20;99.90;;;;;;5033156;28;20484;-62
2023/08/18 01:27:53;;;;;;;12.65;6.10;;;21.10;99.90;;;;;;5033638;28;20450;-62
2023/08/18 01:30:19;;;;;;;11.45;5.90;;;21.10;99.90;;;;;;5032737;28;20053;-62
2023/08/18 01:33:24;;;;;;;10.65;6.80;;;21.10;99.90;;;;;;5033213;28;20120;-62
2023/08/18 01:35:53;;;;;;;9.35;5.70;;;21.00;99.90;;;;;;4952384;29;20035;-62
2023/08/18 01:38:22;;;;;;;7.35;6.07;;;21.00;99.90;;;;;;5018024;28;20033;-62
2023/08/18 01:40:50;;;;;;;7.88;5.88;;;20.90;99.90;;;;;;5032413;28;20037;-62
2023/08/18 01:43:15;;;;;;;8.05;6.28;;;20.90;99.90;;;;;;5015276;28;20032;-62
2023/08/18 01:45:41;;;;;;;6.93;6.25;;;20.90;99.90;;;;;;5032690;28;20523;-62
2023/08/18 01:48:06;;;;;;;7.35;6.50;;;20.80;99.90;;;;;;5032759;28;20075;-62
2023/08/18 01:50:32;;;;;;;9.50;6.70;;;20.80;99.90;;;;;;5032346;28;20044;-62
2023/08/18 01:52:57;;;;;;;9.43;6.68;;;20.80;99.90;;;;;;5032584;28;20438;-61
2023/08/18 01:55:23;;;;;;;8.00;6.47;;;20.70;99.90;;;;;;5031927;28;20041;-62
2023/08/18 01:57:48;;;;;;;6.55;6.00;;;20.60;99.90;;;;;;5032629;28;20039;-62
2023/08/18 02:00:14;;;;;;;11.13;6.50;;;20.70;99.90;;;;;;5032102;28;20038;-62
2023/08/18 02:02:39;;;;;;;9.82;6.75;;;20.60;99.90;;;;;;5032339;28;20079;-62
2023/08/18 02:05:05;;;;;;;10.23;6.10;;;20.70;99.90;;;;;;5032144;28;20125;-62
2023/08/18 02:07:31;;;;;;;7.25;6.55;;;20.70;99.90;;;;;;5032286;28;20030;-62
2023/08/18 02:09:56;;;;;;;6.88;6.18;;;20.70;99.90;;;;;;5031988;28;20064;-62
2023/08/18 02:12:22;;;;;;;8.10;6.53;;;20.70;99.90;;;;;;5032264;28;20048;-62
2023/08/18 02:14:48;;;;;;;9.05;6.85;;;20.60;99.90;;;;;;5032283;28;20030;-62
2023/08/18 02:17:13;;;;;;;11.52;7.82;;;20.60;99.90;;;;;;5032141;28;20029;-62
2023/08/18 02:19:39;;;;;;;8.05;7.13;;;20.60;99.90;;;;;;5014064;28;20026;-62
2023/08/18 02:22:04;;;;;;;10.05;6.18;;;20.60;99.90;;;;;;5014231;28;20112;-62
2023/08/18 02:24:30;;;;;;;8.35;6.30;;;20.60;99.90;;;;;;5032138;28;20492;-60
2023/08/18 02:26:56;;;;;;;11.65;8.35;;;20.60;99.90;;;;;;5032067;28;20467;-62
2023/08/18 02:29:21;;;;;;;9.98;7.38;;;20.60;99.90;;;;;;5031715;28;20025;-62
2023/08/18 02:31:47;;;;;;;12.07;6.85;;;20.50;99.90;;;;;;5031848;28;20492;-62
2023/08/18 02:34:13;;;;;;;8.02;6.32;;;20.40;99.90;;;;;;5031837;28;20396;-60
2023/08/18 02:36:38;;;;;;;7.68;6.97;;;20.40;99.90;;;;;;5013996;28;20033;-62
2023/08/18 02:39:04;;;;;;;10.13;6.45;;;20.40;99.90;;;;;;5013797;28;20026;-62
2023/08/18 02:41:29;;;;;;;8.80;6.88;;;20.40;99.90;;;;;;5014053;28;20024;-62
2023/08/18 02:43:55;;;;;;;7.38;6.60;;;20.30;99.90;;;;;;5031741;28;20030;-62
2023/08/18 02:46:20;;;;;;;10.00;7.30;;;20.30;99.90;;;;;;5031827;28;20071;-62
2023/08/18 02:48:46;;;;;;;10.13;6.95;;;20.30;99.90;;;;;;5031649;28;20108;-62
2023/08/18 02:51:11;;;;;;;11.45;7.65;;;20.30;99.90;;;;;;5031518;28;20017;-62
2023/08/18 02:53:37;;;;;;;16.35;7.22;;;20.30;99.90;;;;;;5031656;28;20044;-62
2023/08/18 02:56:03;;;;;;;8.30;6.93;;;20.30;99.90;;;;;;5031671;28;20037;-61
2023/08/18 02:58:30;;;;;;;11.63;6.72;;;20.30;99.90;;;;;;5031368;28;20092;-59
2023/08/18 03:01:00;;;;;;;10.68;7.10;;;20.30;99.90;;;;;;5031230;28;20065;-62
2023/08/18 03:03:25;;;;;;;12.23;7.65;;;20.30;99.90;;;;;;5031298;28;20029;-62
2023/08/18 03:05:51;;;;;;;8.23;6.65;;;20.30;99.90;;;;;;5031037;28;20083;-62
2023/08/18 03:08:17;;;;;;;10.77;7.07;;;20.30;99.90;;;;;;5031284;28;20061;-62
2023/08/18 03:10:42;;;;;;;8.27;7.47;;;20.30;99.90;;;;;;5031109;28;20026;-62
2023/08/18 03:13:08;;;;;;;7.47;6.50;;;20.30;99.90;;;;;;5031478;28;20451;-62
2023/08/18 03:15:40;;;;;;;7.60;6.90;;;20.20;99.90;;;;;;5031405;28;20036;-61
2023/08/18 03:18:06;;;;;;;7.30;6.60;;;20.20;99.90;;;;;;5014560;28;20593;-62
2023/08/18 03:20:31;;;;;;;7.78;7.05;;;20.20;99.90;;;;;;5031070;28;20056;-62
2023/08/18 03:22:57;;;;;;;16.70;7.45;;;20.20;99.90;;;;;;5031875;28;20034;-62
2023/08/18 03:25:22;;;;;;;8.07;6.78;;;20.10;99.90;;;;;;5031294;28;20080;-62
2023/08/18 03:27:48;;;;;;;8.35;6.38;;;20.10;99.90;;;;;;5031438;28;20034;-62
2023/08/18 03:30:13;;;;;;;7.78;7.00;;;20.10;99.90;;;;;;5031082;28;20022;-62
2023/08/18 03:32:39;;;;;;;17.08;8.60;;;20.10;99.90;;;;;;5013329;28;20033;-63
2023/08/18 03:35:05;;;;;;;9.68;6.75;;;20.10;99.90;;;;;;5031445;28;20101;-62
2023/08/18 03:37:31;;;;;;;11.93;7.97;;;20.00;99.90;;;;;;5031144;28;20052;-62
2023/08/18 03:39:56;;;;;;;13.88;7.65;;;20.10;99.90;;;;;;5030881;28;20504;-62
2023/08/18 03:42:22;;;;;;;8.88;6.80;;;20.00;99.90;;;;;;5031455;28;20108;-62
2023/08/18 03:44:47;;;;;;;8.35;7.28;;;20.00;99.90;;;;;;5031218;28;20015;-62
2023/08/18 03:47:13;;;;;;;16.13;7.55;;;20.00;99.90;;;;;;5030979;28;20041;-62
2023/08/18 03:49:39;;;;;;;8.40;6.93;;;20.00;99.90;;;;;;5030871;28;20400;-62
2023/08/18 03:52:05;;;;;;;10.65;8.13;;;19.90;99.90;;;;;;5031058;28;20037;-61
2023/08/18 03:54:30;;;;;;;8.98;7.78;;;20.00;99.90;;;;;;5031006;28;20045;-62
2023/08/18 03:56:56;;;;;;;14.77;8.25;;;20.00;99.90;;;;;;5030940;28;20513;-62
2023/08/18 03:59:21;;;;;;;10.45;7.15;;;20.00;99.90;;;;;;5030709;28;20033;-62
2023/08/18 04:01:47;;;;;;;11.40;7.57;;;19.90;99.90;;;;;;5030667;28;20372;-61
2023/08/18 04:04:13;;;;;;;8.30;7.32;;;19.90;99.90;;;;;;5012932;28;20411;-62
2023/08/18 04:06:38;;;;;;;12.25;7.15;;;19.90;99.90;;;;;;5013320;28;20117;-62
2023/08/18 04:09:06;;;;;;;10.48;7.30;;;19.80;99.90;;;;;;5030631;28;20093;-61
2023/08/18 04:11:33;;;;;;;10.90;7.03;;;19.80;99.90;;;;;;5030998;28;20541;-61
2023/08/18 04:13:59;;;;;;;19.85;8.73;;;19.80;99.90;;;;;;5030858;28;20034;-62
2023/08/18 04:16:25;;;;;;;10.70;7.90;;;19.80;99.90;;;;;;5030977;28;20028;-60
2023/08/18 04:18:50;;;;;;;8.50;7.40;;;19.70;99.90;;;;;;5033149;28;20076;-62
2023/08/18 04:21:16;;;;;;;11.27;7.38;;;19.70;99.90;;;;;;5034367;28;20028;-63
2023/08/18 04:23:42;;;;;;;7.75;7.05;;;19.70;99.90;;;;;;5034226;28;20484;-62
2023/08/18 04:26:07;;;;;;;9.20;7.15;;;19.70;99.90;;;;;;5034102;28;20055;-62
2023/08/18 04:28:32;;;;;;;16.65;7.70;;;19.80;99.90;;;;;;5016387;28;20041;-62
2023/08/18 04:30:58;;;;;;;8.23;7.40;;;19.70;99.90;;;;;;5033911;28;20025;-62
2023/08/18 04:33:24;;;;;;;11.60;7.88;;;19.70;99.90;;;;;;5034116;28;20025;-62
2023/08/18 04:35:49;;;;;;;10.52;7.43;;;19.70;99.90;;;;;;5034188;28;20018;-62
2023/08/18 04:38:16;;;;;;;8.70;7.38;;;19.70;99.90;;;;;;5034081;28;20036;-62
2023/08/18 04:40:42;;;;;;;10.55;7.93;;;19.70;99.90;;;;;;5033792;28;20018;-61
2023/08/18 04:43:07;;;;;;;9.50;7.80;;;19.70;99.90;;;;;;5034009;28;20037;-61
2023/08/18 04:45:34;;;;;;;9.10;7.75;;;19.70;99.90;;;;;;5034179;28;20022;-62
2023/08/18 04:47:59;;;;;;;8.63;7.53;;;19.70;99.90;;;;;;5033847;28;20124;-62
2023/08/18 04:50:25;;;;;;;12.10;7.35;;;19.70;99.90;;;;;;5033548;28;20104;-62
2023/08/18 04:52:50;;;;;;;15.57;8.15;;;19.70;99.90;;;;;;5034159;28;20475;-62
2023/08/18 04:55:16;;;;;;;13.57;8.57;;;19.70;99.90;;;;;;5033836;28;20033;-62
2023/08/18 04:57:41;;;;;;;15.27;8.02;;;19.70;99.90;;;;;;5034097;28;20033;-62
2023/08/18 05:00:09;;;;;;;12.30;8.25;;;19.70;99.90;;;;;;5033283;28;20034;-62
2023/08/18 05:02:34;;;;;;;13.40;7.95;;;19.70;99.90;;;;;;5049042;28;20448;-62
2023/08/18 05:05:00;;;;;;;11.52;8.25;;;19.70;99.90;;;;;;5033385;28;20049;-62
2023/08/18 05:07:26;;;;;;;9.50;7.60;;;19.70;99.90;;;;;;5033503;28;20382;-62
2023/08/18 05:09:52;;;;;;;8.68;7.43;;;19.80;99.90;;;;;;5033156;28;20051;-62
2023/08/18 05:12:17;;;;;;;16.25;7.68;;;19.80;99.90;;;;;;5015521;28;20083;-62
2023/08/18 05:14:43;;;;;;;12.65;7.63;;;19.80;99.90;;;;;;5033409;28;20099;-62
2023/08/18 05:17:08;;;;;;;8.85;7.28;;;19.90;99.90;;;;;;5033172;28;20439;-62
2023/08/18 05:19:34;;;;;;;9.95;7.22;;;20.00;99.90;;;;;;5032946;28;20025;-62
2023/08/18 05:22:00;;;;;;;12.27;7.50;;;20.10;99.90;;;;;;5033010;28;20021;-62
2023/08/18 05:24:25;;;;;;;10.23;6.75;;;20.20;99.90;;;;;;5033089;28;20472;-62
2023/08/18 05:26:51;;;;;;;11.43;6.80;;;20.50;99.90;;;;;;5033042;28;20036;-62
2023/08/18 05:29:16;;;;;;;9.93;6.93;;;20.80;99.90;;;;;;5031989;28;20455;-62
2023/08/18 05:31:43;;;;;;;6.50;5.90;;;21.10;99.90;;;;;;5033125;28;20496;-62
2023/08/18 05:34:09;;;;;;;9.65;6.68;;;21.40;99.90;;;;;;5033051;28;20033;-62
2023/08/18 05:36:36;;;;;;;6.93;6.10;;;21.50;99.90;;;;;;5033041;28;20025;-62
2023/08/18 05:39:02;;;;;;;9.88;6.20;;;21.60;99.90;;;;;;5032546;28;20029;-62
2023/08/18 05:41:27;;;;;;;7.93;5.70;;;21.60;99.90;;;;;;5032755;28;20024;-62
2023/08/18 05:43:53;;;;;;;8.30;6.40;;;21.80;99.90;;;;;;5032809;28;20025;-63
2023/08/18 05:46:18;;;;;;;13.90;6.13;;;21.90;99.90;;;;;;5032890;28;20021;-62
2023/08/18 05:48:44;;;;;;;11.82;5.97;;;21.80;99.90;;;;;;5032657;28;20030;-63
2023/08/18 05:51:09;;;;;;;9.77;5.60;;;21.70;99.90;;;;;;5014632;28;20057;-63
2023/08/18 05:53:35;;;;;;;10.93;5.82;;;21.70;99.90;;;;;;5015112;28;20419;-62
2023/08/18 05:56:00;;;;;;;8.15;7.35;;;21.60;99.90;;;;;;5032719;28;20073;-62
2023/08/18 05:58:26;;;;;;;11.90;5.95;;;21.60;99.90;;;;;;5032544;28;20076;-63
2023/08/18 06:00:51;;;;;;;13.13;5.78;;;21.70;99.90;;;;;;5031978;28;20049;-62
2023/08/18 06:03:20;;;;;;;8.30;6.05;;;21.60;99.90;;;;;;5032212;28;20030;-62
2023/08/18 06:05:49;;;;;;;6.78;5.65;;;21.70;99.90;;;;;;5032313;28;20152;-63
2023/08/18 06:08:15;;;;;;;10.57;6.38;;;21.80;99.90;;;;;;5032307;28;20025;-62
2023/08/18 06:10:41;;;;;;;8.30;5.70;;;21.90;99.90;;;;;;5014246;28;20026;-61
2023/08/18 06:13:07;;;;;;;11.80;6.50;;;21.90;99.90;;;;;;5032220;28;20036;-62
2023/08/18 06:15:32;;;;;;;9.80;4.93;;;22.20;99.90;;;;;;5032287;28;20155;-62
2023/08/18 06:17:58;;;;;;;7.40;5.00;;;22.40;99.90;;;;;;5032137;28;20029;-61
2023/08/18 06:20:23;;;;;;;6.78;4.65;;;22.60;99.90;;;;;;5032021;28;20029;-60
2023/08/18 06:22:49;;;;;;;10.38;5.35;;;22.80;99.90;;;;;;5032190;28;20022;-61
2023/08/18 06:25:14;;;;;;;16.42;7.22;;;23.20;99.90;;;;;;5032249;28;20477;-62
2023/08/18 06:27:40;;;;;;;7.53;4.65;;;23.60;99.90;;;;;;5032425;28;20024;-62
2023/08/18 06:30:06;;;;;;;10.00;5.10;;;23.80;99.90;;;;;;5031760;28;20033;-62
2023/08/18 06:32:32;;;;;;;10.77;4.60;;;24.00;99.90;;;;;;5031894;28;20091;-62
2023/08/18 06:34:58;;;;;;;19.08;4.78;;;24.20;99.90;;;;;;5014612;28;20435;-61
2023/08/18 06:37:24;;;;;;;5.85;4.80;;;24.40;99.90;;;;;;5032251;28;20029;-62
2023/08/18 06:39:50;;;;;;;9.40;4.68;;;24.40;99.90;;;;;;5031535;28;20022;-60
2023/08/18 06:42:15;;;;;;;5.55;3.83;;;24.30;99.90;;;;;;5031660;28;20028;-60
2023/08/18 06:44:41;;;;;;;5.82;4.05;;;24.60;99.90;;;;;;5014104;28;20534;-61
2023/08/18 06:47:06;;;;;;;7.30;3.95;;;25.00;99.90;;;;;;5047170;28;20029;-62
2023/08/18 06:49:32;;;;;;;11.35;4.07;;;25.60;99.90;;;;;;5031357;28;20022;-62
2023/08/18 06:51:57;;;;;;;4.82;3.63;;;26.30;99.90;;;;;;5031588;28;20033;-62
2023/08/18 06:54:23;;;;;;;10.93;4.28;;;26.70;99.90;;;;;;5031639;28;20064;-62
2023/08/18 06:56:48;;;;;;;6.65;3.67;;;26.80;99.90;;;;;;5031737;28;20072;-62
2023/08/18 06:59:14;;;;;;;5.47;3.30;;;27.00;99.90;;;;;;5013481;28;20026;-61
2023/08/18 07:01:40;;;;;;;8.23;3.20;;;27.30;99.90;;;;;;5031609;28;20456;-62
2023/08/18 07:04:07;;;;;;;5.57;3.50;;;27.70;99.90;;;;;;5013387;28;20488;-62
2023/08/18 07:06:33;;;;;;;4.05;3.22;;;27.80;99.90;;;;;;5031051;28;20025;-62
2023/08/18 07:08:58;;;;;;;5.18;3.47;;;27.90;99.90;;;;;;5013708;28;20021;-61
2023/08/18 07:11:24;;;;;;;7.13;3.78;;;28.50;99.90;;;;;;5031265;28;20096;-62
2023/08/18 07:13:49;;;;;;;7.82;3.50;;;28.90;99.90;;;;;;5031202;28;20116;-61
2023/08/18 07:16:15;;;;;;;3.92;3.05;;;29.30;99.90;;;;;;5013656;28;20457;-61
2023/08/18 07:18:40;;;;;;;7.75;3.05;;;29.60;99.90;;;;;;5031244;28;20535;-59
2023/08/18 07:21:06;;;;;;;4.70;3.35;;;29.70;99.90;;;;;;5024684;28;20473;-56
2023/08/18 07:23:31;;;;;;;5.13;3.17;;;29.60;99.90;;;;;;5038105;28;20036;-54
2023/08/18 07:25:57;;;;;;;5.45;3.45;;;29.70;99.90;;;;;;5025039;28;20470;-55
2023/08/18 07:28:22;;;;;;;3.88;3.25;;;30.10;99.90;;;;;;5015363;28;20049;-54
2023/08/18 07:30:48;;;;;;;4.95;2.92;;;30.10;99.90;;;;;;5030648;28;20091;-53
2023/08/18 07:33:13;;;;;;;3.22;3.03;;;30.50;99.90;;;;;;5031175;28;20067;-56
2023/08/18 07:35:39;;;;;;;6.40;3.42;;;30.50;99.90;;;;;;5030923;28;20037;-53
2023/08/18 07:38:04;;;;;;;7.82;3.45;;;30.40;99.90;;;;;;5030578;28;20033;-53
2023/08/18 07:40:30;;;;;;;5.45;3.40;;;30.20;99.90;;;;;;5035450;28;20025;-58
2023/08/18 07:42:56;;;;;;;7.07;3.58;;;30.60;99.90;;;;;;5038585;28;20033;-57
2023/08/18 07:45:21;;;;;;;7.15;3.10;;;30.40;99.90;;;;;;5039148;28;20192;-55
2023/08/18 07:47:47;;;;;;;4.53;3.17;;;30.30;99.90;;;;;;5037713;28;20032;-58
2023/08/18 07:50:13;;;;;;;8.45;3.00;;;30.40;99.90;;;;;;5037179;28;20064;-56
2023/08/18 07:52:41;;;;;;;6.05;2.83;;;30.40;99.90;;;;;;5037476;28;20064;-55
2023/08/18 07:55:07;;;;;;;3.53;2.50;;;30.70;99.90;;;;;;5042810;28;20018;-55
2023/08/18 07:57:34;;;;;;;5.32;2.83;;;30.90;99.90;;;;;;5045267;28;20057;-57
2023/08/18 08:00:16;;;;;;;4.97;3.15;;;31.40;99.50;;;;;;5023819;28;20022;-54
2023/08/18 08:02:42;;;;;;;14.45;2.75;;;31.50;99.50;;;;;;5041419;28;20515;-58
2023/08/18 08:05:08;;;;;;;6.38;2.90;;;31.40;99.20;;;;;;5041467;28;20099;-58
2023/08/18 08:07:34;;;;;;;5.88;2.90;;;31.60;99.00;;;;;;5040455;28;20021;-54
2023/08/18 08:10:04;;;;;;;6.25;3.20;;;32.00;99.20;;;;;;5022815;28;20026;-57
2023/08/18 08:12:31;;;;;;;3.50;2.42;;;32.50;97.60;;;;;;5043563;28;20036;-56
2023/08/18 08:14:57;;;;;;;5.97;3.03;;;32.50;97.70;;;;;;5044064;28;20439;-55
2023/08/18 08:17:23;;;;;;;3.05;2.60;;;32.70;97.50;;;;;;5045704;28;20021;-58
2023/08/18 08:19:49;;;;;;;4.55;2.90;;;32.90;97.10;;;;;;5026829;28;20401;-58
2023/08/18 08:22:16;;;;;;;7.45;2.80;;;32.70;96.60;;;;;;5044014;28;20032;-57
2023/08/18 08:24:42;;;;;;;3.80;2.40;;;32.70;96.90;;;;;;5044771;28;20353;-57
2023/08/18 08:27:07;;;;;;;2.92;2.47;;;32.80;97.10;;;;;;5044640;28;20025;-58
2023/08/18 08:29:33;;;;;;;4.53;2.92;;;32.70;96.70;;;;;;5026989;28;20057;-55
2023/08/18 08:31:59;;;;;;;4.75;2.63;;;32.60;96.50;;;;;;5044867;28;20310;-54
2023/08/18 08:34:24;;;;;;;4.60;3.00;;;32.50;96.40;;;;;;5044383;28;20021;-58
2023/08/18 08:36:50;;;;;;;4.30;2.55;;;32.80;96.40;;;;;;5044787;28;20025;-58
2023/08/18 08:39:15;;;;;;;3.60;3.08;;;33.20;95.80;;;;;;5044895;28;20083;-57
2023/08/18 08:41:41;;;;;;;7.38;2.60;;;33.20;95.80;;;;;;5022534;28;20033;-53
2023/08/18 08:44:06;;;;;;;8.00;3.08;;;33.60;95.50;;;;;;5039581;28;20025;-58
2023/08/18 08:46:35;;;;;;;6.15;3.15;;;33.60;94.70;;;;;;5045398;28;20055;-57
2023/08/18 08:49:04;;;;;;;4.30;2.80;;;33.20;95.70;;;;;;5045238;28;20052;-58
2023/08/18 08:51:32;;;;;;;3.05;2.17;;;33.20;95.50;;;;;;5044986;28;20033;-56
2023/08/18 08:54:01;;;;;;;7.60;2.92;;;33.70;95.20;;;;;;5045306;28;20033;-58
2023/08/18 08:56:32;;;;;;;3.97;2.60;;;33.70;94.70;;;;;;5045502;28;20025;-57
2023/08/18 08:58:58;;;;;;;6.13;2.67;;;32.80;95.20;;;;;;5045377;28;20025;-56
2023/08/18 09:01:24;;;;;;;8.40;3.15;;;32.60;95.70;;;;;;5044957;28;20565;-58
2023/08/18 09:03:51;;;;;;;5.03;3.22;;;32.10;96.50;;;;;;5042279;28;20053;-53
2023/08/18 09:06:16;;;;;;;3.58;3.08;;;32.00;96.80;;;;;;5033842;28;20431;-58
2023/08/18 09:08:42;;;;;;;6.85;2.80;;;31.70;97.20;;;;;;5042654;28;20101;-56
2023/08/18 09:11:10;;;;;;;4.28;3.38;;;31.50;97.90;;;;;;5041932;28;20105;-58
2023/08/18 09:13:36;;;;;;;6.07;3.33;;;31.50;98.00;;;;;;5041920;28;20063;-57
2023/08/18 09:16:06;;;;;;;6.57;3.17;;;31.00;98.10;;;;;;5025144;28;20057;-58
2023/08/18 09:18:33;;;;;;;6.75;2.63;;;31.00;98.50;;;;;;5043873;28;20017;-56
2023/08/18 09:21:04;;;;;;;5.75;4.75;;;31.10;98.60;;;;;;5042115;28;20086;-53
2023/08/18 09:23:30;;;;;;;5.13;3.25;;;31.00;99.20;;;;;;5042622;28;20028;-59
2023/08/18 09:25:59;;;;;;;4.93;3.17;;;31.10;98.50;;;;;;5043207;28;20072;-57
2023/08/18 09:28:25;;;;;;;4.45;3.10;;;30.80;98.80;;;;;;5025309;28;20028;-58
2023/08/18 09:30:51;;;;;;;7.05;4.25;;;30.90;99.40;;;;;;5024465;28;20025;-58
2023/08/18 09:33:17;;;;;;;6.72;3.35;;;31.00;99.60;;;;;;5025039;28;20025;-59
2023/08/18 09:35:42;;;;;;;3.30;3.00;;;31.10;98.90;;;;;;5041818;28;20021;-53
2023/08/18 09:38:13;;;;;;;7.60;3.38;;;31.10;98.50;;;;;;5032657;28;20072;-53
2023/08/18 09:40:39;;;;;;;4.63;3.28;;;31.20;99.20;;;;;;5042424;28;20021;-57
2023/08/18 09:43:04;;;;;;;8.95;3.13;;;31.00;98.80;;;;;;5045185;28;20081;-58
2023/08/18 09:45:32;;;;;;;6.95;2.72;;;31.10;99.40;;;;;;5046196;28;20045;-56
2023/08/18 09:48:01;;;;;;;4.80;3.25;;;31.30;99.70;;;;;;5045091;28;20025;-56
2023/08/18 09:50:31;;;;;;;5.22;2.90;;;31.50;99.10;;;;;;5044648;28;20033;-57
2023/08/18 09:52:58;;;;;;;4.40;3.08;;;31.70;98.70;;;;;;5046025;28;20053;-58
2023/08/18 09:55:31;;;;;;;4.32;3.50;;;31.80;97.80;;;;;;5043863;28;20089;-56
2023/08/18 09:58:23;;;;;;;5.25;3.35;;;31.70;98.30;;;;;;5043665;28;20085;-55
2023/08/18 10:00:56;;;;;;;7.00;3.40;;;31.50;98.90;;;;;;5025378;28;20033;-55
2023/08/18 10:03:25;;;;;;;4.13;2.80;;;31.50;99.10;;;;;;5044065;28;20096;-54
2023/08/18 10:05:51;;;;;;;3.67;3.38;;;31.50;99.40;;;;;;5045351;28;20025;-55
2023/08/18 10:08:17;;;;;;;7.05;3.30;;;31.20;98.40;;;;;;5044671;28;20045;-54
2023/08/18 10:10:43;;;;;;;25.13;16.70;;;30.80;98.90;;;;;;5044224;28;20022;-58
2023/08/18 10:13:10;;;;;;;7.03;4.22;;;30.80;99.10;;;;;;5044709;28;20052;-55
2023/08/18 10:15:37;;;;;;;22.15;13.13;;;30.60;99.10;;;;;;5026623;28;20059;-56
2023/08/18 10:18:07;;;;;;;4.30;3.58;;;30.70;99.70;;;;;;5044919;28;20104;-58
2023/08/18 10:20:33;;;;;;;3.90;3.00;;;30.80;99.70;;;;;;5044055;28;20485;-59
2023/08/18 10:22:58;;;;;;;6.93;3.08;;;30.90;99.90;;;;;;5026875;28;20059;-55
2023/08/18 10:25:25;;;;;;;5.57;2.92;;;30.80;99.90;;;;;;5044099;28;20028;-58
2023/08/18 10:27:51;;;;;;;4.97;2.97;;;30.80;99.90;;;;;;5044808;28;20059;-56
2023/08/18 10:30:24;;;;;;;5.93;3.20;;;30.90;99.90;;;;;;5020477;28;20113;-60
2023/08/18 10:32:51;;;;;;;7.95;3.13;;;31.10;99.90;;;;;;5034371;28;20032;-60
2023/08/18 10:35:21;;;;;;;5.65;3.08;;;31.20;99.90;;;;;;5015456;28;20029;-59
2023/08/18 10:38:01;;;;;;;6.03;3.50;;;31.10;99.30;;;;;;5031757;28;20033;-52
2023/08/18 10:40:29;;;;;;;3.95;3.25;;;31.00;99.10;;;;;;5031221;28;20022;-55
2023/08/18 10:43:06;;;;;;;6.25;3.35;;;30.80;99.30;;;;;;5032233;28;20024;-51
2023/08/18 10:45:32;;;;;;;7.90;3.33;;;30.50;99.80;;;;;;5032888;28;20076;-57
2023/08/18 10:48:00;;;;;;;4.82;3.20;;;30.30;99.90;;;;;;5032844;28;20028;-54
2023/08/18 10:50:30;;;;;;;8.45;3.78;;;30.30;99.90;;;;;;5032997;28;20097;-56
2023/08/18 10:52:56;;;;;;;6.32;3.65;;;30.40;99.90;;;;;;5036236;28;20030;-55
2023/08/18 10:55:24;;;;;;;6.45;3.00;;;30.40;99.90;;;;;;5015694;28;20025;-52
2023/08/18 10:57:49;;;;;;;8.43;3.40;;;30.50;99.90;;;;;;5034138;28;20022;-54
2023/08/18 11:00:18;;;;;;;4.68;3.00;;;30.50;99.90;;;;;;5032480;28;20122;-54
2023/08/18 11:02:44;;;;;;;9.43;3.35;;;30.50;99.90;;;;;;5031239;28;20032;-55
2023/08/18 11:05:10;;;;;;;4.35;3.33;;;30.50;99.90;;;;;;5034381;28;20485;-59
2023/08/18 11:07:36;;;;;;;4.15;2.92;;;30.40;99.90;;;;;;5014428;28;20029;-50
2023/08/18 11:10:19;;;;;;;4.90;2.45;;;30.30;99.90;;;;;;5032667;28;20071;-54
2023/08/18 11:12:46;;;;;;;9.40;4.00;;;30.20;99.80;;;;;;5032305;28;20025;-56
2023/08/18 11:15:12;;;;;;;9.23;4.60;;;30.10;99.90;;;;;;5031928;28;20043;-56
2023/08/18 11:17:38;;;;;;;7.57;2.92;;;29.90;99.90;;;;;;5030975;28;20488;-55
2023/08/18 11:20:07;;;;;;;3.22;2.90;;;29.80;99.90;;;;;;5031968;28;20071;-53
2023/08/18 11:22:36;;;;;;;5.13;3.38;;;29.80;99.90;;;;;;5032840;28;20021;-51
2023/08/18 11:25:04;;;;;;;6.85;2.97;;;29.70;99.90;;;;;;5034281;28;20098;-51
2023/08/18 11:27:31;;;;;;;3.17;2.75;;;29.50;99.90;;;;;;5017213;28;20019;-51
2023/08/18 11:29:58;;;;;;;3.40;3.08;;;29.30;99.90;;;;;;5035755;28;20075;-52
2023/08/18 11:32:24;;;;;;;21.15;16.48;;;29.30;99.90;;;;;;5035430;28;20489;-51
2023/08/18 11:34:50;;;;;;;6.82;3.88;;;29.40;99.90;;;;;;5036222;28;20036;-52
2023/08/18 11:37:18;;;;;;;13.80;9.13;;;29.40;99.90;;;;;;5039271;28;20057;-57
2023/08/18 11:39:46;;;;;;;4.85;2.95;;;29.30;99.90;;;;;;5042034;28;20555;-53
2023/08/18 11:42:12;;;;;;;5.75;3.38;;;29.30;99.90;;;;;;5043535;28;20022;-58
2023/08/18 11:44:38;;;;;;;7.25;3.63;;;29.40;99.90;;;;;;5042449;28;20500;-56
2023/08/18 11:47:06;;;;;;;9.60;3.20;;;29.30;99.90;;;;;;5043004;28;20029;-58
2023/08/18 11:49:31;;;;;;;4.90;3.45;;;29.30;99.90;;;;;;5038334;28;20026;-51
2023/08/18 11:51:58;;;;;;;5.88;3.38;;;29.20;99.90;;;;;;5037915;28;20051;-58
2023/08/18 11:54:25;;;;;;;6.03;3.25;;;29.20;99.90;;;;;;5018757;28;20064;-53
2023/08/18 11:56:51;;;;;;;4.65;3.17;;;29.20;99.90;;;;;;5037273;28;20036;-52
2023/08/18 11:59:21;;;;;;;4.50;3.53;;;29.20;99.90;;;;;;5037499;28;20021;-52
2023/08/18 12:01:51;;;;;;;10.02;3.70;;;29.20;99.90;;;;;;5037718;28;20029;-50
2023/08/18 12:04:22;;;;;;;5.75;3.40;;;29.30;99.90;;;;;;5038479;28;20083;-52
2023/08/18 12:06:47;;;;;;;8.73;3.15;;;29.20;99.90;;;;;;5039135;28;20009;-53
2023/08/18 12:09:12;;;;;;;3.13;2.83;;;29.30;99.90;;;;;;5038794;28;20025;-55
2023/08/18 12:11:39;;;;;;;5.60;3.47;;;29.20;99.90;;;;;;5038471;28;20496;-51
2023/08/18 12:14:05;;;;;;;7.20;3.35;;;29.20;99.90;;;;;;5038798;28;20116;-49
2023/08/18 12:16:30;;;;;;;6.72;3.30;;;29.20;99.90;;;;;;5039456;28;20084;-51
2023/08/18 12:18:56;;;;;;;5.53;3.30;;;29.10;99.90;;;;;;5039530;28;20036;-51
2023/08/18 12:21:21;;;;;;;5.30;3.00;;;29.20;99.90;;;;;;5021976;28;20112;-54
2023/08/18 12:23:47;;;;;;;5.25;3.13;;;29.20;99.90;;;;;;5040241;28;20045;-53
2023/08/18 12:26:14;;;;;;;7.03;2.65;;;29.20;99.90;;;;;;5041343;28;20022;-54
2023/08/18 12:28:40;;;;;;;4.13;3.08;;;29.30;99.90;;;;;;5041236;28;20026;-59
2023/08/18 12:31:05;;;;;;;6.50;3.90;;;29.30;99.90;;;;;;5034926;28;20025;-52
2023/08/18 12:33:31;;;;;;;6.00;3.47;;;29.20;99.90;;;;;;5036102;28;20374;-53
2023/08/18 12:35:56;;;;;;;5.57;3.30;;;29.30;99.90;;;;;;5035479;28;20033;-53
2023/08/18 12:38:22;;;;;;;6.90;3.03;;;29.30;99.90;;;;;;5036588;28;20021;-57
2023/08/18 12:40:48;;;;;;;6.13;3.22;;;29.30;99.90;;;;;;5036523;28;20400;-58
2023/08/18 12:43:13;;;;;;;5.82;2.80;;;29.30;99.90;;;;;;5041566;28;20017;-58